Latest Weather Observations for Flinders Reef

IDQ60801

Issued at 4:32 am EST Saturday 2 July 2016 (issued every 30 minutes, with the page automatically refreshed every 10 minutes)

About weather observations | Map of weather stations | Latest weather observations for QLD | Other Formats
Station Details ID: 200783 Name: FLINDERS REEF Lat: -17.72 Lon: 148.45 Height: 2.6 m
Data from the previous 72 hours. | See also: Recent months at Flinders Reef
Date/Time
EST
Temp
°C
App
Temp
°C
Dew
Point
°C
Rel
Hum
%
Delta-T
°C
Wind Press
QNH
hPa
Press
MSL
hPa
Rain since
9am
mm
Dir  Spd
km/h
Gust
km/h
Spd
kts
Gust
kts
02/04:30am 24.2 - - - - SE 32 39 17 21 1017.4 - -
02/04:24am 24.3 - - - - SE 32 33 17 18 1017.4 1017.3 -
02/04:00am 24.2 - - - - SE 32 35 17 19 1017.4 - -
02/03:30am 24.3 - - - - ESE 30 35 16 19 1017.6 - -
02/03:24am 24.3 - - - - ESE 30 - 16 - - 1017.6 -
02/03:00am 24.4 - - - - ESE 30 35 16 19 1017.7 - -
02/02:30am 24.3 - - - - ESE 28 35 15 19 1018.1 - -
02/02:24am 24.5 - - - - ESE 30 - 16 - - 1018.0 -
02/02:00am 24.4 - - - - ESE 28 33 15 18 1018.3 - -
02/01:30am 24.2 - - - - ESE 30 35 16 19 1018.5 - -
02/01:24am 24.6 - - - - ESE 30 - 16 - - 1018.5 -
02/01:00am 24.3 - - - - ESE 30 35 16 19 1018.7 - -
02/12:30am 24.3 - - - - ESE 30 35 16 19 1018.8 - -
02/12:24am 24.4 - - - - ESE 30 - 16 - - 1018.8 -
02/12:00am 24.4 - - - - ESE 32 37 17 20 1019.1 - -
 
Date/Time
EST
Temp
°C
App
Temp
°C
Dew
Point
°C
Rel
Hum
%
Delta-T
°C
Wind Press
QNH
hPa
Press
MSL
hPa
Rain since
9am
mm
Dir  Spd
km/h
Gust
km/h
Spd
kts
Gust
kts
01/11:30pm 24.7 - - - - ESE 33 39 18 21 1019.1 - -
01/11:24pm 24.7 - - - - E 32 - 17 - - 1019.0 -
01/11:00pm 24.9 - - - - E 33 39 18 21 1019.2 - -
01/10:30pm 24.2 - - - - E 30 35 16 19 1019.3 - -
01/10:24pm 24.7 - - - - ESE 30 - 16 - - 1019.2 -
01/10:00pm 24.4 - - - - ESE 32 37 17 20 1019.4 - -
01/09:30pm 24.7 - - - - ESE 30 33 16 18 1019.3 - -
01/09:24pm 24.6 - - - - E 30 - 16 - - 1019.3 -
01/09:00pm 24.8 - - - - ESE 30 35 16 19 1019.4 - -
01/08:30pm 24.8 - - - - ESE 33 37 18 20 1019.2 - -
01/08:24pm 24.9 - - - - ESE 32 - 17 - - 1019.0 -
01/08:00pm 24.8 - - - - ESE 32 37 17 20 1018.9 - -
01/07:30pm 24.9 - - - - ESE 33 37 18 20 1018.5 - -
01/07:24pm 24.9 - - - - ESE 32 - 17 - - 1018.4 -
01/07:00pm 24.9 - - - - ESE 32 37 17 20 1018.2 - -
01/06:30pm 24.7 - - - - ESE 26 33 14 18 1017.8 - -
01/06:24pm 24.5 - - - - ESE 28 - 15 - - 1017.8 -
01/06:00pm 24.9 - - - - ESE 28 33 15 18 1017.7 - -
01/05:30pm 24.8 - - - - ESE 28 33 15 18 1017.4 - -
01/05:24pm 24.8 - - - - ESE 28 - 15 - - 1017.3 -
01/05:00pm 24.9 - - - - ESE 28 33 15 18 1017.1 - -
01/04:30pm 25.0 - - - - ESE 26 32 14 17 1016.9 - -
01/04:24pm 24.9 - - - - ESE 26 - 14 - - 1016.8 -
01/04:00pm 24.9 - - - - ESE 24 28 13 15 1016.7 - -
01/03:30pm 25.3 - - - - ESE 24 28 13 15 1016.6 - -
01/03:24pm 25.0 - - - - ESE 24 - 13 - - 1016.5 -
01/03:00pm 25.0 - - - - SE 24 28 13 15 1016.5 - -
01/02:30pm 25.0 - - - - SE 24 28 13 15 1016.6 - -
01/02:24pm 25.3 - - - - ESE 24 - 13 - - 1016.6 -
01/02:00pm 25.2 - - - - SE 2 6 1 3 1016.9 - -
01/01:30pm 24.3 - - - - SSE 2 4 1 2 1017.0 - -
01/01:24pm 24.4 - - - - CALM 0 - 0 - - 1017.0 -
01/01:00pm 24.5 - - - - SSE 2 6 1 3 1017.4 - -
01/12:30pm 24.4 - - - - S 19 22 10 12 1017.7 - -
01/12:24pm 24.3 - - - - S 19 - 10 - - 1017.7 -
01/12:00pm 25.0 - - - - SE 19 24 10 13 1018.1 - -
01/11:30am 25.0 - - - - SE 17 22 9 12 1018.4 - -
01/11:24am 25.2 - - - - SE 17 - 9 - - 1018.3 -
01/11:00am 25.1 - - - - ESE 17 20 9 11 1018.7 - -
01/10:30am 25.0 - - - - ESE 13 22 7 12 1019.1 - -
01/10:24am 25.0 - - - - ESE 9 - 5 - - 1019.0 -
01/10:00am 25.0 - - - - ESE 15 19 8 10 1019.3 - -
01/09:30am 24.8 - - - - E 15 20 8 11 1019.6 - -
01/09:24am 24.7 - - - - E 15 - 8 - - 1019.6 -
01/09:00am 24.6 - - - - E 15 19 8 10 1019.6 - -
01/08:30am 25.1 - - - - E 17 20 9 11 1019.4 - -
01/08:24am 24.9 - - - - E 19 - 10 - - 1019.2 -
01/08:00am 24.3 - - - - E 20 24 11 13 1019.1 - -
01/07:30am 24.0 - - - - E 26 32 14 17 1018.7 - -
01/07:24am 24.2 - - - - E 22 - 12 - - 1018.6 -
01/07:00am 24.1 - - - - E 22 26 12 14 1018.5 - -
01/06:30am 24.2 - - - - E 17 20 9 11 1018.2 - -
01/06:24am 24.5 - - - - ESE 15 - 8 - - 1018.1 -
01/06:00am 24.2 - - - - ESE 15 19 8 10 1018.0 - -
01/05:30am 24.3 - - - - E 17 19 9 10 1017.7 - -
01/05:24am 24.3 - - - - E 15 - 8 - - 1017.5 -
01/05:00am 24.3 - - - - E 13 15 7 8 1017.4 - -
01/04:30am 24.2 - - - - ENE 13 17 7 9 1017.3 - -
01/04:24am 24.3 - - - - ENE 13 - 7 - - 1017.2 -
01/04:00am 24.3 - - - - ENE 13 17 7 9 1017.4 - -
01/03:30am 24.4 - - - - ENE 15 17 8 9 1017.4 - -
01/03:24am 24.5 - - - - ENE 15 - 8 - - 1017.3 -
01/03:00am 24.6 - - - - ENE 15 20 8 11 1017.4 - -
01/02:30am 24.8 - - - - E 15 19 8 10 1017.6 - -
01/02:24am 24.6 - - - - E 15 - 8 - - 1017.7 -
01/02:00am 24.6 - - - - E 13 15 7 8 1017.9 - -
01/01:30am 24.7 - - - - E 11 13 6 7 1018.3 - -
01/01:24am 24.9 - - - - E 13 - 7 - - 1018.3 -
01/01:00am 24.8 - - - - E 17 20 9 11 1018.5 - -
01/12:30am 24.9 - - - - E 22 28 12 15 1018.7 - -
01/12:24am 25.0 - - - - E 22 - 12 - - 1018.7 -
01/12:00am 24.9 - - - - E 24 30 13 16 1018.6 - -
 
Date/Time
EST
Temp
°C
App
Temp
°C
Dew
Point
°C
Rel
Hum
%
Delta-T
°C
Wind Press
QNH
hPa
Press
MSL
hPa
Rain since
9am
mm
Dir  Spd
km/h
Gust
km/h
Spd
kts
Gust
kts
30/11:30pm 24.6 - - - - E 26 30 14 16 1018.8 - -
30/11:24pm 24.9 - - - - E 26 - 14 - - 1018.7 -
30/11:00pm 24.6 - - - - E 22 28 12 15 1019.1 - -
30/10:30pm 24.9 - - - - ESE 20 26 11 14 1019.2 - -
30/10:24pm 24.7 - - - - ESE 22 - 12 - - 1019.1 -
30/10:00pm 24.8 - - - - ESE 20 26 11 14 1019.3 - -
30/09:30pm 25.0 - - - - ESE 24 28 13 15 1019.2 - -
30/09:24pm 24.7 - - - - SE 24 - 13 - - 1019.1 -
30/09:00pm 25.0 - - - - ESE 22 26 12 14 1019.4 - -
30/08:30pm 25.0 - - - - ESE 24 28 13 15 1019.4 - -
30/08:24pm 25.1 - - - - ESE 24 - 13 - - 1019.2 -
30/08:00pm 24.9 - - - - ESE 24 30 13 16 1019.0 - -
30/07:30pm 24.8 - - - - ESE 24 28 13 15 1018.8 - -
30/07:24pm 24.8 - - - - ESE 24 - 13 - - 1018.6 -
30/07:00pm 25.0 - - - - ESE 26 28 14 15 1018.4 - -
30/06:30pm 25.0 - - - - ESE 26 28 14 15 1018.0 - -
30/06:24pm 24.9 - - - - ESE 26 - 14 - - 1017.9 -
30/06:00pm 25.0 - - - - ESE 26 30 14 16 1017.7 - -
30/05:30pm 24.9 - - - - ESE 28 32 15 17 1017.5 - -
30/05:24pm 25.1 - - - - ESE 28 - 15 - - 1017.4 -
30/05:00pm 25.0 - - - - E 28 30 15 16 1017.3 - -
30/04:30pm 25.2 - - - - E 24 30 13 16 1017.0 - -
30/04:24pm 25.0 - - - - ESE 24 - 13 - - 1016.9 -
30/04:00pm 25.3 - - - - ESE 22 26 12 14 1017.0 - -
30/03:30pm 25.1 - - - - E 24 28 13 15 1016.8 - -
30/03:24pm 25.1 - - - - E 22 - 12 - - 1016.7 -
30/03:00pm 25.4 - - - - E 22 26 12 14 1016.6 - -
30/02:30pm 25.6 - - - - E 22 28 12 15 1016.8 - -
30/02:24pm 25.3 - - - - E 22 - 12 - - 1016.7 -
30/02:00pm 25.2 - - - - E 24 26 13 14 1017.0 - -
30/01:30pm 25.1 - - - - E 22 28 12 15 1017.3 - -
30/01:24pm 25.3 - - - - E 24 - 13 - - 1017.2 -
30/01:00pm 25.2 - - - - E 24 28 13 15 1017.6 - -
30/12:30pm 24.8 - - - - ESE 24 28 13 15 1018.2 - -
30/12:24pm 25.1 - - - - ESE 22 - 12 - - 1018.2 -
30/12:00pm 25.0 - - - - E 26 30 14 16 1018.6 - -
30/11:30am 25.3 - - - - E 24 30 13 16 1019.0 - -
30/11:24am 25.2 - - - - E 26 - 14 - - 1019.0 -
30/11:00am 25.1 - - - - E 28 33 15 18 1019.2 - -
30/10:30am 25.2 - - - - E 32 39 17 21 1019.5 - -
30/10:24am 25.4 - - - - E 32 - 17 - - 1019.4 -
30/10:00am 25.1 - - - - E 32 37 17 20 1019.7 - -
30/09:30am 25.2 - - - - E 33 39 18 21 1019.9 - -
30/09:24am 25.2 - - - - E 32 - 17 - - 1019.9 -
30/09:00am 25.4 - - - - E 32 37 17 20 1020.0 - -
30/08:30am 25.2 - - - - E 33 41 18 22 1019.8 - -
30/08:24am 25.1 - - - - E 32 - 17 - - 1019.7 -
30/08:00am 24.9 - - - - E 33 41 18 22 1019.6 - -
30/07:30am 24.8 - - - - E 35 43 19 23 1019.3 - -
30/07:24am 25.0 - - - - E 35 - 19 - - 1019.2 -
30/07:00am 24.6 - - - - E 37 43 20 23 1019.0 - -
30/06:30am 24.7 - - - - E 33 39 18 21 1018.6 - -
30/06:24am 24.3 - - - - E 32 - 17 - - 1018.4 -
30/06:00am 24.6 - - - - E 32 37 17 20 1018.5 - -
30/05:30am 24.2 - - - - E 32 37 17 20 1018.3 - -
30/05:24am 24.5 - - - - E 30 - 16 - - 1018.2 -
30/05:00am 24.5 - - - - E 30 37 16 20 1018.2 - -
30/04:30am 24.5 - - - - E 32 39 17 21 1018.1 - -
30/04:24am 24.6 - - - - E 32 - 17 - - 1018.0 -
30/04:00am 24.4 - - - - E 33 39 18 21 1018.1 - -
30/03:30am 24.2 - - - - E 32 37 17 20 1018.3 - -
30/03:24am 24.4 - - - - E 35 - 19 - - 1018.2 -
30/03:00am 24.4 - - - - E 33 43 18 23 1018.3 - -
30/02:30am 24.1 - - - - ESE 35 41 19 22 1018.7 - -
30/02:24am 24.2 - - - - ESE 35 - 19 - - 1018.7 -
30/02:00am 24.3 - - - - ESE 37 43 20 23 1018.9 - -
30/01:30am 24.8 - - - - ESE 35 41 19 22 1019.0 - -
30/01:24am 24.9 - - - - ESE 35 - 19 - - 1019.0 -
30/01:00am 25.0 - - - - ESE 41 46 22 25 1019.2 - -
30/12:30am 24.4 - - - - ESE 41 46 22 25 1019.6 - -
30/12:24am 24.4 - - - - ESE 41 - 22 - - 1019.5 -
30/12:00am 24.5 - - - - ESE 41 46 22 25 1019.7 - -
 
Date/Time
EST
Temp
°C
App
Temp
°C
Dew
Point
°C
Rel
Hum
%
Delta-T
°C
Wind Press
QNH
hPa
Press
MSL
hPa
Rain since
9am
mm
Dir  Spd
km/h
Gust
km/h
Spd
kts
Gust
kts
29/11:30pm 24.4 - - - - ESE 41 46 22 25 1019.9 - -
29/11:24pm 24.3 - - - - SE 39 - 21 - - 1019.8 -
29/11:00pm 24.3 - - - - ESE 41 46 22 25 1020.1 - -
29/10:30pm 24.3 - - - - SE 35 43 19 23 1020.6 - -
29/10:24pm 24.3 - - - - SE 35 - 19 - - 1020.4 -
29/10:00pm 24.0 - - - - ESE 33 39 18 21 1020.6 - -
29/09:30pm 24.2 - - - - ESE 33 41 18 22 1020.6 - -
29/09:24pm 24.2 - - - - ESE 35 - 19 - - 1020.5 -
29/09:00pm 24.2 - - - - ESE 41 46 22 25 1020.4 - -
29/08:30pm 23.8 - - - - ESE 33 41 18 22 1020.4 - -
29/08:24pm 24.0 - - - - ESE 32 - 17 - - 1020.3 -
29/08:00pm 23.7 - - - - ESE 32 39 17 21 1020.5 - -
29/07:30pm 23.9 - - - - ESE 39 46 21 25 1020.2 - -
29/07:24pm 23.6 - - - - ESE 39 - 21 - - 1020.1 -
29/07:00pm 23.7 - - - - ESE 33 41 18 22 1019.9 - -
29/06:30pm 23.5 - - - - SE 39 44 21 24 1019.5 - -
29/06:24pm 23.8 - - - - SE 41 - 22 - - 1019.4 -
29/06:00pm 23.4 - - - - SE 37 46 20 25 1019.3 - -
29/05:30pm 23.6 - - - - ESE 35 39 19 21 1019.2 - -
29/05:24pm 23.8 - - - - ESE 35 - 19 - - 1019.1 -
29/05:00pm 23.5 - - - - SE 35 39 19 21 1019.0 - -
29/04:30pm 23.5 - - - - SE 35 43 19 23 1018.9 - -
29/04:24pm 23.6 - - - - SE 35 - 19 - - 1018.8 -
29/04:00pm 23.7 - - - - SE 35 43 19 23 1018.6 - -
29/03:30pm 23.7 - - - - ESE 35 41 19 22 1018.6 - -
29/03:24pm 23.5 - - - - ESE 35 - 19 - - 1018.4 -
29/03:00pm 23.4 - - - - ESE 39 44 21 24 1018.5 - -
29/02:30pm 23.3 - - - - SE 35 39 19 21 1018.6 - -
29/02:24pm 23.5 - - - - SE 35 - 19 - - 1018.5 -
29/02:00pm 23.4 - - - - SE 35 43 19 23 1018.8 - -
29/01:30pm 23.3 - - - - SE 35 41 19 22 1019.1 - -
29/01:24pm 23.1 - - - - ESE 35 - 19 - - 1019.1 -
29/01:00pm 23.2 - - - - SE 37 44 20 24 1019.4 - -
29/12:30pm 23.0 - - - - SE 37 46 20 25 1019.9 - -
29/12:24pm 23.0 - - - - SE 39 - 21 - - 1019.9 -
29/12:00pm 22.6 - - - - SE 37 48 20 26 1020.5 - -
29/11:30am 23.0 - - - - SE 39 46 21 25 1020.8 - -
29/11:24am 22.9 - - - - SE 39 - 21 - - 1020.7 -
29/11:00am 22.4 - - - - SE 41 50 22 27 1021.0 - -
29/10:30am 22.7 - - - - SE 39 48 21 26 1021.2 - -
29/10:24am 22.7 - - - - SE 41 - 22 - - 1021.2 -
29/10:00am 22.9 - - - - SE 41 50 22 27 1021.3 - -
29/09:30am 22.3 - - - - SE 41 48 22 26 1021.3 - -
29/09:24am 22.4 - - - - SE 43 - 23 - - 1021.2 -
29/09:00am 22.4 - - - - SE 43 48 23 26 1021.1 - -
29/08:30am 22.5 - - - - SE 41 48 22 26 1021.0 - -
29/08:24am 22.3 - - - - SE 41 - 22 - - 1020.8 -
29/08:00am 22.2 - - - - SE 41 50 22 27 1020.8 - -
29/07:30am 22.4 - - - - SE 44 52 24 28 1020.5 - -
29/07:24am 22.1 - - - - SE 44 - 24 - - 1020.4 -
29/07:00am 22.1 - - - - SE 43 50 23 27 1020.1 - -
29/06:30am 21.8 - - - - SSE 41 52 22 28 1020.2 - -
29/06:24am 22.0 - - - - SE 43 - 23 - - 1020.0 -
29/06:00am 21.6 - - - - SE 44 54 24 29 1019.9 - -
29/05:30am 21.9 - - - - SE 43 52 23 28 1019.8 - -
29/05:24am 21.7 - - - - SE 43 - 23 - - 1019.7 -
29/05:00am 21.7 - - - - SE 44 54 24 29 1019.8 - -

Other Formats:

Comma delimited format used in spreadsheet applications
http://www.bom.gov.au/fwo/IDQ60801/IDQ60801.94290.axf

JavaScript Object Notation format (JSON) in row-major order
http://www.bom.gov.au/fwo/IDQ60801/IDQ60801.94290.json